createdAt,value
2023-01-18T00:00:22.209Z,2.94
2023-01-18T00:02:49.487Z,2.68
2023-01-18T00:05:16.519Z,2.42
2023-01-18T00:07:43.495Z,2.33
2023-01-18T00:10:10.920Z,2.85
2023-01-18T00:12:37.909Z,3.15
2023-01-18T00:15:05.743Z,3.08
2023-01-18T00:17:32.656Z,2.84
2023-01-18T00:19:59.665Z,2.57
2023-01-18T00:22:26.548Z,2.37
2023-01-18T00:24:53.554Z,2.81
2023-01-18T00:27:21.436Z,3.30
2023-01-18T00:29:48.465Z,3.35
2023-01-18T00:32:17.040Z,3.13
2023-01-18T00:34:44.019Z,2.83
2023-01-18T00:37:10.883Z,2.57
2023-01-18T00:39:37.883Z,2.90
2023-01-18T00:42:23.691Z,3.25
2023-01-18T00:44:50.724Z,3.14
2023-01-18T00:47:17.788Z,2.91
2023-01-18T00:49:46.316Z,2.63
2023-01-18T00:52:13.207Z,2.62
2023-01-18T00:54:40.189Z,3.15
2023-01-18T00:57:07.191Z,3.33
2023-01-18T00:59:34.229Z,3.21
2023-01-18T01:02:01.339Z,2.97
2023-01-18T01:04:47.277Z,2.72
2023-01-18T01:07:14.626Z,2.63
2023-01-18T01:09:42.367Z,3.17
2023-01-18T01:12:28.177Z,3.36
2023-01-18T01:15:13.876Z,3.22
2023-01-18T01:17:59.646Z,2.96
2023-01-18T01:20:47.066Z,2.77
2023-01-18T01:23:37.560Z,3.20
2023-01-18T01:26:08.457Z,3.36
2023-01-18T01:28:36.607Z,3.21
2023-01-18T01:31:04.389Z,2.98
2023-01-18T01:33:31.844Z,3.01
2023-01-18T01:36:00.277Z,3.36
2023-01-18T01:38:27.682Z,3.41
2023-01-18T01:41:02.088Z,3.21
2023-01-18T01:43:40.914Z,2.99
2023-01-18T01:46:29.538Z,3.20
2023-01-18T01:49:08.964Z,3.48
2023-01-18T01:51:40.782Z,3.37
2023-01-18T01:54:11.431Z,3.11
2023-01-18T01:56:38.374Z,2.99
2023-01-18T01:59:05.263Z,3.33
2023-01-18T02:01:32.400Z,3.41
2023-01-18T02:03:59.479Z,3.24
2023-01-18T02:06:31.677Z,2.98
2023-01-18T02:09:03.695Z,3.08
2023-01-18T02:11:30.607Z,3.34
2023-01-18T02:14:01.540Z,3.27
2023-01-18T02:16:59.968Z,3.06
2023-01-18T02:20:07.124Z,3.14
2023-01-18T02:22:45.370Z,3.50
2023-01-18T02:25:39.528Z,3.43
2023-01-18T02:28:09.671Z,3.16
2023-01-18T02:30:41.864Z,3.17
2023-01-18T02:33:15.414Z,3.49
2023-01-18T02:35:45.210Z,3.43
2023-01-18T02:38:46.982Z,3.23
2023-01-18T02:41:20.191Z,3.15
2023-01-18T02:44:07.354Z,3.51
2023-01-18T02:46:34.395Z,3.56
2023-01-18T02:49:21.471Z,3.35
2023-01-18T02:51:48.372Z,3.08
2023-01-18T02:54:24.725Z,3.40
2023-01-18T02:56:53.686Z,3.60
2023-01-18T02:59:35.375Z,3.47
2023-01-18T03:02:08.305Z,3.19
2023-01-18T03:04:38.855Z,3.30
2023-01-18T03:07:10.297Z,3.63
2023-01-18T03:09:37.251Z,3.63
2023-01-18T03:12:21.026Z,3.36
2023-01-18T03:14:54.809Z,3.09
2023-01-18T03:17:26.758Z,3.29
2023-01-18T03:20:06.542Z,3.47
2023-01-18T03:22:59.837Z,3.35
2023-01-18T03:25:29.982Z,3.19
2023-01-18T03:28:16.843Z,3.46
2023-01-18T03:31:02.741Z,3.61
2023-01-18T03:33:46.240Z,3.46
2023-01-18T03:36:27.439Z,3.30
2023-01-18T03:39:06.270Z,3.67
2023-01-18T03:41:37.064Z,3.92
2023-01-18T03:44:07.817Z,3.79
2023-01-18T03:46:34.774Z,3.56
2023-01-18T03:49:01.869Z,3.62
2023-01-18T03:51:47.448Z,3.97
2023-01-18T03:54:40.777Z,4.00
2023-01-18T03:57:12.082Z,3.85
2023-01-18T03:59:39.072Z,3.73
2023-01-18T04:02:06.981Z,4.13
2023-01-18T04:04:34.249Z,4.27
2023-01-18T04:07:01.286Z,4.14
2023-01-18T04:09:28.236Z,3.95
2023-01-18T04:11:55.183Z,4.17
2023-01-18T04:14:22.150Z,4.46
2023-01-18T04:16:49.069Z,4.48
2023-01-18T04:19:17.349Z,4.32
2023-01-18T04:21:44.312Z,4.26
2023-01-18T04:24:11.681Z,4.63
2023-01-18T04:26:38.711Z,4.69
2023-01-18T04:29:05.855Z,4.57
2023-01-18T04:31:32.950Z,4.44
2023-01-18T04:34:00.039Z,4.79
2023-01-18T04:36:28.576Z,4.88
2023-01-18T04:38:55.598Z,4.75
2023-01-18T04:41:22.513Z,4.68
2023-01-18T04:43:49.406Z,5.00
2023-01-18T04:46:16.547Z,5.02
2023-01-18T04:48:43.647Z,4.87
2023-01-18T04:51:14.586Z,4.89
2023-01-18T04:53:42.444Z,5.18
2023-01-18T04:56:09.802Z,5.18
2023-01-18T04:58:36.854Z,5.00
2023-01-18T05:01:05.340Z,5.10
2023-01-18T05:03:38.306Z,5.47
2023-01-18T05:06:07.417Z,5.48
2023-01-18T05:08:34.697Z,5.28
2023-01-18T05:11:03.773Z,5.17
2023-01-18T05:13:30.940Z,5.48
2023-01-18T05:15:59.500Z,5.55
2023-01-18T05:18:26.559Z,5.41
2023-01-18T05:20:53.455Z,5.31
2023-01-18T05:23:20.351Z,5.62
2023-01-18T05:25:55.109Z,5.74
2023-01-18T05:28:27.879Z,5.54
2023-01-18T05:30:55.301Z,5.48
2023-01-18T05:33:22.555Z,5.78
2023-01-18T05:35:52.148Z,5.82
2023-01-18T05:38:19.249Z,5.69
2023-01-18T05:40:47.853Z,5.63
2023-01-18T05:43:14.830Z,5.93
2023-01-18T05:45:42.318Z,5.96
2023-01-18T05:48:10.570Z,5.79
2023-01-18T05:50:41.538Z,5.72
2023-01-18T05:53:14.288Z,6.06
2023-01-18T05:55:41.325Z,6.04
2023-01-18T05:58:08.379Z,5.89
2023-01-18T06:00:35.423Z,5.96
2023-01-18T06:03:02.423Z,6.23
2023-01-18T06:05:29.427Z,6.23
2023-01-18T06:07:56.840Z,6.04
2023-01-18T06:10:23.761Z,5.99
2023-01-18T06:12:51.068Z,6.30
2023-01-18T06:15:18.098Z,6.31
2023-01-18T06:17:47.011Z,6.14
2023-01-18T06:20:14.569Z,6.13
2023-01-18T06:22:41.494Z,6.45
2023-01-18T06:25:10.087Z,6.47
2023-01-18T06:27:39.147Z,6.32
2023-01-18T06:30:07.278Z,6.17
2023-01-18T06:32:34.422Z,6.40
2023-01-18T06:35:01.468Z,6.49
2023-01-18T06:37:28.503Z,6.37
2023-01-18T06:39:55.412Z,6.26
2023-01-18T06:42:22.403Z,6.54
2023-01-18T06:44:49.353Z,6.63
2023-01-18T06:47:20.097Z,6.48
2023-01-18T06:49:50.617Z,6.35
2023-01-18T06:52:18.202Z,6.67
2023-01-18T06:54:45.064Z,6.80
2023-01-18T06:57:12.564Z,6.67
2023-01-18T06:59:40.156Z,6.45
2023-01-18T07:02:07.536Z,6.65
2023-01-18T07:04:38.087Z,6.86
2023-01-18T07:07:05.065Z,6.70
2023-01-18T07:09:32.005Z,6.52
2023-01-18T07:12:00.138Z,6.65
2023-01-18T07:14:27.127Z,6.86
2023-01-18T07:16:54.203Z,6.78
2023-01-18T07:19:21.312Z,6.58
2023-01-18T07:21:49.789Z,6.61
2023-01-18T07:24:16.836Z,6.94
2023-01-18T07:26:44.220Z,6.92
2023-01-18T07:29:11.316Z,6.73
2023-01-18T07:31:41.142Z,6.72
2023-01-18T07:34:09.634Z,7.07
2023-01-18T07:36:38.903Z,7.16
2023-01-18T07:39:06.734Z,6.99
2023-01-18T07:41:34.235Z,6.75
2023-01-18T07:44:03.543Z,6.94
2023-01-18T07:46:30.613Z,7.24
2023-01-18T07:48:57.714Z,7.18
2023-01-18T07:51:24.812Z,6.99
2023-01-18T07:53:55.649Z,6.86
2023-01-18T07:56:26.127Z,7.17
2023-01-18T07:58:53.446Z,7.22
2023-01-18T08:01:22.136Z,7.03
2023-01-18T08:03:49.738Z,6.86
2023-01-18T08:06:20.394Z,7.12
2023-01-18T08:08:47.541Z,7.16
2023-01-18T08:11:14.425Z,7.02
2023-01-18T08:13:41.884Z,6.89
2023-01-18T08:16:09.478Z,7.22
2023-01-18T08:18:36.656Z,7.33
2023-01-18T08:21:03.810Z,7.23
2023-01-18T08:23:30.865Z,7.11
2023-01-18T08:26:01.493Z,7.24
2023-01-18T08:28:28.484Z,7.44
2023-01-18T08:31:20.081Z,7.37
2023-01-18T08:33:48.917Z,7.09
2023-01-18T08:36:21.181Z,7.23
2023-01-18T08:38:57.234Z,7.44
2023-01-18T08:41:31.365Z,7.36
2023-01-18T08:43:59.190Z,7.21
2023-01-18T08:46:26.380Z,7.33
2023-01-18T08:48:57.745Z,7.65
2023-01-18T08:51:26.285Z,7.63
2023-01-18T08:53:54.600Z,7.43
2023-01-18T08:56:21.774Z,7.28
2023-01-18T08:58:48.884Z,7.56
2023-01-18T09:01:16.042Z,7.60
2023-01-18T09:03:43.230Z,7.50
2023-01-18T09:06:12.870Z,7.31
2023-01-18T09:08:40.166Z,7.54
2023-01-18T09:11:09.859Z,7.79
2023-01-18T09:13:39.635Z,7.69
2023-01-18T09:16:10.639Z,7.43
2023-01-18T09:18:38.028Z,7.59
2023-01-18T09:21:09.360Z,7.85
2023-01-18T09:23:36.762Z,7.78
2023-01-18T09:26:09.399Z,7.58
2023-01-18T09:28:36.821Z,7.59
2023-01-18T09:31:05.363Z,7.91
2023-01-18T09:33:37.677Z,7.90
2023-01-18T09:36:07.937Z,7.68
2023-01-18T09:38:36.785Z,7.60
2023-01-18T09:41:06.640Z,7.96
2023-01-18T09:43:39.322Z,8.06
2023-01-18T09:46:14.374Z,7.89
2023-01-18T09:48:41.521Z,7.63
2023-01-18T09:51:29.096Z,7.83
2023-01-18T09:54:25.128Z,8.05
2023-01-18T09:57:08.668Z,7.92
2023-01-18T09:59:41.652Z,7.72
2023-01-18T10:02:38.414Z,7.92
2023-01-18T10:05:08.127Z,8.13
2023-01-18T10:07:36.178Z,7.99
2023-01-18T10:10:03.832Z,7.84
2023-01-18T10:12:39.813Z,7.94
2023-01-18T10:15:20.989Z,8.17
2023-01-18T10:17:48.241Z,8.09
2023-01-18T10:20:22.255Z,7.89
2023-01-18T10:22:52.925Z,8.00
2023-01-18T10:25:31.724Z,8.33
2023-01-18T10:27:58.752Z,8.29
2023-01-18T10:30:38.467Z,8.10
2023-01-18T10:33:23.753Z,8.07
2023-01-18T10:35:52.655Z,8.48
2023-01-18T10:38:21.422Z,8.50
2023-01-18T10:40:59.968Z,8.33
2023-01-18T10:43:28.919Z,8.26
2023-01-18T10:45:56.193Z,8.58
2023-01-18T10:48:31.347Z,8.66
2023-01-18T10:51:03.442Z,8.50
2023-01-18T10:53:31.751Z,8.39
2023-01-18T10:55:59.603Z,8.68
2023-01-18T10:58:27.814Z,8.85
2023-01-18T11:00:55.300Z,8.73
2023-01-18T11:03:23.547Z,8.57
2023-01-18T11:05:50.479Z,8.72
2023-01-18T11:08:22.101Z,8.99
2023-01-18T11:11:16.213Z,8.97
2023-01-18T11:13:45.078Z,8.76
2023-01-18T11:16:19.276Z,8.79
2023-01-18T11:18:56.634Z,9.06
2023-01-18T11:21:24.678Z,9.02
2023-01-18T11:23:52.356Z,8.88
2023-01-18T11:26:20.414Z,8.85
2023-01-18T11:28:58.278Z,9.29
2023-01-18T11:31:26.720Z,9.46
2023-01-18T11:34:02.091Z,9.33
2023-01-18T11:36:40.860Z,9.13
2023-01-18T11:39:25.800Z,9.19
2023-01-18T11:42:14.177Z,9.58
2023-01-18T11:44:50.743Z,9.62
2023-01-18T11:47:21.935Z,9.52
2023-01-18T11:49:55.024Z,9.45
2023-01-18T11:52:37.503Z,9.76
2023-01-18T11:55:08.291Z,10.01
2023-01-18T11:57:35.372Z,10.06
2023-01-18T12:00:04.032Z,9.98
2023-01-18T12:02:56.288Z,10.00
2023-01-18T12:05:32.280Z,10.50
2023-01-18T12:08:18.238Z,10.50
2023-01-18T12:11:05.569Z,10.20
2023-01-18T12:13:40.320Z,10.04
2023-01-18T12:16:24.354Z,9.96
2023-01-18T12:19:03.604Z,10.16
2023-01-18T12:21:48.976Z,10.35
2023-01-18T12:24:38.428Z,10.16
2023-01-18T12:27:09.169Z,9.81
2023-01-18T12:30:07.473Z,9.51
2023-01-18T12:32:58.012Z,9.77
2023-01-18T12:35:38.787Z,9.84
2023-01-18T12:38:23.390Z,9.64
2023-01-18T12:41:28.104Z,9.39
2023-01-18T12:44:04.745Z,9.50
2023-01-18T12:46:55.150Z,9.80
2023-01-18T12:49:23.064Z,9.73
2023-01-18T12:52:03.112Z,9.48
2023-01-18T12:54:43.256Z,9.25
2023-01-18T12:57:11.710Z,9.51
2023-01-18T13:00:01.943Z,9.67
2023-01-18T13:02:35.949Z,9.58
2023-01-18T13:05:44.125Z,9.32
2023-01-18T13:08:39.360Z,9.40
2023-01-18T13:11:11.201Z,9.73
2023-01-18T13:13:38.146Z,9.64
2023-01-18T13:16:11.339Z,9.44
2023-01-18T13:19:04.185Z,9.27
2023-01-18T13:21:48.704Z,9.64
2023-01-18T13:24:40.823Z,9.69
2023-01-18T13:27:15.249Z,9.44
2023-01-18T13:29:42.541Z,9.26
2023-01-18T13:32:28.843Z,9.51
2023-01-18T13:35:20.578Z,9.68
2023-01-18T13:37:55.809Z,9.52
2023-01-18T13:40:35.146Z,9.25
2023-01-18T13:43:02.810Z,9.38
2023-01-18T13:45:30.400Z,9.59
2023-01-18T13:48:08.436Z,9.52
2023-01-18T13:50:35.329Z,9.30
2023-01-18T13:53:14.815Z,9.27
2023-01-18T13:56:00.233Z,9.57
2023-01-18T13:58:31.682Z,9.54
2023-01-18T14:01:03.621Z,9.26
2023-01-18T14:03:36.553Z,9.02
2023-01-18T14:06:09.132Z,9.21
2023-01-18T14:08:37.392Z,9.39
2023-01-18T14:11:06.322Z,9.27
2023-01-18T14:13:46.026Z,9.04
2023-01-18T14:16:17.703Z,8.89
2023-01-18T14:18:55.883Z,9.22
2023-01-18T14:21:25.489Z,9.29
2023-01-18T14:24:02.771Z,9.07
2023-01-18T14:26:30.954Z,8.82
2023-01-18T14:29:04.761Z,8.83
2023-01-18T14:31:34.714Z,9.13
2023-01-18T14:34:38.401Z,9.12
2023-01-18T14:37:26.274Z,8.84
2023-01-18T14:40:15.583Z,8.70
2023-01-18T14:42:49.913Z,9.03
2023-01-18T14:45:27.235Z,9.04
2023-01-18T14:47:55.674Z,8.82
2023-01-18T14:50:23.431Z,8.56
2023-01-18T14:52:51.243Z,8.73
2023-01-18T14:55:36.568Z,8.96
2023-01-18T14:58:16.944Z,8.82
2023-01-18T15:00:44.933Z,8.54
2023-01-18T15:03:24.342Z,8.41
2023-01-18T15:05:56.509Z,8.79
2023-01-18T15:08:23.497Z,8.85
2023-01-18T15:10:50.666Z,8.66
2023-01-18T15:13:18.165Z,8.41
2023-01-18T15:15:45.355Z,8.45
2023-01-18T15:18:21.837Z,8.69
2023-01-18T15:21:01.018Z,8.64
2023-01-18T15:23:28.158Z,8.42
2023-01-18T15:25:55.218Z,8.30
2023-01-18T15:28:24.329Z,8.62
2023-01-18T15:30:52.857Z,8.69
2023-01-18T15:33:20.853Z,8.57
2023-01-18T15:35:49.400Z,8.38
2023-01-18T15:38:16.919Z,8.59
2023-01-18T15:40:53.398Z,8.86
2023-01-18T15:43:31.395Z,8.79
2023-01-18T15:45:58.580Z,8.56
2023-01-18T15:48:26.818Z,8.50
2023-01-18T15:50:58.037Z,8.91
2023-01-18T15:53:29.802Z,9.07
2023-01-18T15:55:58.665Z,8.98
2023-01-18T15:58:34.947Z,8.78
2023-01-18T16:01:07.960Z,8.93
2023-01-18T16:03:53.956Z,9.31
2023-01-18T16:06:20.973Z,9.31
2023-01-18T16:11:56.969Z,9.07
2023-01-18T16:14:37.604Z,9.53
2023-01-18T16:17:10.825Z,9.59
2023-01-18T16:19:42.767Z,9.36
2023-01-18T16:22:21.195Z,9.17
2023-01-18T16:24:52.480Z,9.19
2023-01-18T16:27:20.997Z,9.44
2023-01-18T16:29:52.767Z,9.35
2023-01-18T16:32:22.866Z,9.03
2023-01-18T16:34:49.943Z,8.88
2023-01-18T16:37:18.386Z,9.18
2023-01-18T16:39:45.567Z,9.23
2023-01-18T16:42:12.909Z,9.02
2023-01-18T16:44:42.092Z,8.85
2023-01-18T16:47:13.115Z,8.73
2023-01-18T16:49:41.267Z,9.09
2023-01-18T16:52:12.869Z,9.22
2023-01-18T16:54:44.287Z,9.10
2023-01-18T16:57:18.297Z,8.83
2023-01-18T16:59:45.284Z,8.48
2023-01-18T17:02:12.391Z,8.60
2023-01-18T17:04:39.414Z,8.78
2023-01-18T17:07:09.291Z,8.57
2023-01-18T17:09:48.870Z,8.37
2023-01-18T17:12:16.504Z,8.29
2023-01-18T17:14:43.551Z,8.62
2023-01-18T17:17:11.164Z,8.66
2023-01-18T17:19:38.352Z,8.47
2023-01-18T17:22:06.564Z,8.24
2023-01-18T17:24:33.989Z,8.15
2023-01-18T17:27:01.693Z,8.43
2023-01-18T17:29:28.985Z,8.49
2023-01-18T17:31:56.057Z,8.32
2023-01-18T17:34:28.288Z,8.08
2023-01-18T17:36:59.911Z,8.03
2023-01-18T17:39:42.835Z,8.34
2023-01-18T17:42:19.232Z,8.40
2023-01-18T17:45:02.663Z,8.13
2023-01-18T17:47:30.824Z,7.85
2023-01-18T17:49:58.738Z,8.11
2023-01-18T17:52:26.525Z,8.43
2023-01-18T17:54:53.658Z,8.38
2023-01-18T17:57:20.692Z,8.26
2023-01-18T17:59:47.648Z,8.04
2023-01-18T18:02:14.873Z,8.02
2023-01-18T18:04:41.983Z,8.40
2023-01-18T18:07:08.990Z,8.30
2023-01-18T18:09:40.852Z,8.14
2023-01-18T18:12:08.213Z,7.90
2023-01-18T18:14:37.505Z,7.93
2023-01-18T18:17:05.565Z,8.20
2023-01-18T18:21:51.384Z,8.23
2023-01-18T18:24:37.673Z,7.95
2023-01-18T18:30:09.658Z,8.11
2023-01-18T18:32:36.734Z,8.25
2023-01-18T18:35:07.415Z,8.16
2023-01-18T18:37:39.312Z,7.99
2023-01-18T18:40:07.210Z,7.78
2023-01-18T18:42:34.131Z,7.59
2023-01-18T18:45:01.074Z,7.92
2023-01-18T18:47:28.112Z,8.01
2023-01-18T18:49:58.419Z,7.98
2023-01-18T18:52:25.407Z,7.71
2023-01-18T18:54:52.823Z,7.54
2023-01-18T18:57:20.078Z,7.56
2023-01-18T18:59:47.149Z,7.82
2023-01-18T19:02:16.184Z,8.04
2023-01-18T19:04:43.747Z,7.93
2023-01-18T19:07:10.846Z,7.67
2023-01-18T19:09:37.866Z,7.50
2023-01-18T19:12:04.938Z,7.78
2023-01-18T19:14:32.419Z,7.95
2023-01-18T19:17:00.392Z,7.95
2023-01-18T19:19:29.083Z,7.80
2023-01-18T19:21:55.999Z,7.60
2023-01-18T19:24:23.941Z,7.42
2023-01-18T19:26:50.885Z,7.82
2023-01-18T19:29:17.986Z,7.90
2023-01-18T19:31:45.141Z,7.70
2023-01-18T19:34:13.042Z,7.51
2023-01-18T19:36:39.973Z,7.34
2023-01-18T19:39:09.281Z,7.42
2023-01-18T19:41:42.082Z,7.86
2023-01-18T19:44:14.469Z,7.85
2023-01-18T19:46:41.405Z,7.67
2023-01-18T19:49:09.166Z,7.45
2023-01-18T19:51:41.857Z,7.21
2023-01-18T19:54:11.244Z,7.49
2023-01-18T19:56:38.710Z,7.73
2023-01-18T19:59:06.156Z,7.67
2023-01-18T20:01:36.706Z,7.39
2023-01-18T20:04:06.173Z,7.19
2023-01-18T20:06:38.639Z,6.98
2023-01-18T20:09:17.648Z,7.16
2023-01-18T20:11:45.149Z,7.52
2023-01-18T20:14:12.400Z,7.45
2023-01-18T20:16:39.417Z,7.25
2023-01-18T20:19:06.498Z,7.02
2023-01-18T20:21:33.562Z,6.78
2023-01-18T20:24:01.097Z,6.57
2023-01-18T20:26:36.488Z,6.92
2023-01-18T20:29:07.172Z,7.26
2023-01-18T20:31:36.408Z,7.23
2023-01-18T20:34:04.891Z,7.04
2023-01-18T20:36:36.407Z,6.73
2023-01-18T20:39:06.558Z,6.49
2023-01-18T20:41:33.678Z,6.31
2023-01-18T20:44:00.751Z,6.52
2023-01-18T20:46:27.773Z,6.80
2023-01-18T20:48:54.756Z,6.76
2023-01-18T20:51:22.270Z,6.65
2023-01-18T20:53:49.302Z,6.40
2023-01-18T20:56:28.803Z,6.19
2023-01-18T20:58:57.050Z,6.11
2023-01-18T21:01:24.244Z,6.57
2023-01-18T21:03:55.203Z,6.77
2023-01-18T21:06:22.801Z,6.62
2023-01-18T21:08:53.743Z,6.40
2023-01-18T21:11:23.152Z,6.10
2023-01-18T21:13:50.372Z,5.83
2023-01-18T21:16:17.917Z,5.78
2023-01-18T21:18:45.108Z,6.17
2023-01-18T21:21:13.003Z,6.23
2023-01-18T21:23:40.006Z,6.03
2023-01-18T21:26:08.691Z,5.76
2023-01-18T21:28:35.717Z,5.53
2023-01-18T21:31:02.645Z,5.31
2023-01-18T21:33:34.142Z,5.44
2023-01-18T21:36:05.883Z,5.88
2023-01-18T21:38:32.902Z,5.92
2023-01-18T21:41:19.991Z,5.79
2023-01-18T21:44:05.713Z,5.58
2023-01-18T21:46:32.798Z,5.40
2023-01-18T21:49:06.807Z,5.35
2023-01-18T21:51:53.703Z,5.79
2023-01-18T21:54:22.393Z,5.90
2023-01-18T21:56:51.144Z,5.69
2023-01-18T21:59:18.046Z,5.36
2023-01-18T22:01:47.177Z,5.05
2023-01-18T22:04:34.238Z,4.79
2023-01-18T22:07:01.342Z,4.64
2023-01-18T22:09:29.071Z,5.15
2023-01-18T22:11:59.696Z,5.42
2023-01-18T22:14:26.678Z,5.29
2023-01-18T22:16:53.722Z,5.01
2023-01-18T22:19:20.820Z,4.70
2023-01-18T22:21:48.192Z,4.42
2023-01-18T22:24:15.628Z,4.18
2023-01-18T22:26:42.724Z,4.51
2023-01-18T22:29:09.669Z,4.95
2023-01-18T22:31:36.651Z,5.03
2023-01-18T22:34:05.455Z,4.91
2023-01-18T22:36:33.328Z,4.74
2023-01-18T22:39:00.428Z,4.58
2023-01-18T22:41:28.133Z,4.74
2023-01-18T22:43:55.447Z,5.13
2023-01-18T22:46:23.709Z,5.12
2023-01-18T22:48:51.027Z,4.90
2023-01-18T22:51:19.913Z,4.64
2023-01-18T22:53:46.950Z,4.39
2023-01-18T22:56:15.631Z,4.14
2023-01-18T22:58:42.692Z,4.49
2023-01-18T23:01:17.142Z,4.88
2023-01-18T23:03:44.869Z,4.87
2023-01-18T23:06:12.029Z,4.72
2023-01-18T23:08:42.621Z,4.55
2023-01-18T23:11:20.139Z,4.39
2023-01-18T23:14:07.890Z,4.29
2023-01-18T23:16:54.186Z,4.88
2023-01-18T23:19:21.830Z,5.46
2023-01-18T23:21:48.731Z,5.46
2023-01-18T23:24:15.717Z,5.25
2023-01-18T23:26:42.772Z,4.95
2023-01-18T23:29:09.930Z,4.74
2023-01-18T23:31:36.882Z,4.55
2023-01-18T23:34:03.834Z,4.42
2023-01-18T23:36:30.755Z,4.77
2023-01-18T23:39:16.472Z,5.14
2023-01-18T23:42:02.264Z,5.09
2023-01-18T23:44:48.149Z,4.89
2023-01-18T23:47:33.770Z,4.68
2023-01-18T23:50:19.469Z,4.40
2023-01-18T23:53:05.269Z,4.45
2023-01-18T23:55:32.169Z,4.87
2023-01-18T23:57:59.793Z,4.89
